createdAt,value
2019-02-06T00:02:26.572Z,99.90
2019-02-06T00:04:54.678Z,99.90
2019-02-06T00:07:22.696Z,99.90
2019-02-06T00:09:50.849Z,99.90
2019-02-06T00:12:19.322Z,99.90
2019-02-06T00:14:47.406Z,99.90
2019-02-06T00:17:15.421Z,99.90
2019-02-06T00:19:43.513Z,99.90
2019-02-06T00:22:11.725Z,99.90
2019-02-06T00:24:39.763Z,99.90
2019-02-06T00:27:11.137Z,99.90
2019-02-06T00:29:43.037Z,99.90
2019-02-06T00:32:11.638Z,99.90
2019-02-06T00:34:40.012Z,99.90
2019-02-06T00:37:08.535Z,99.90
2019-02-06T00:39:39.949Z,99.90
2019-02-06T00:42:10.683Z,99.90
2019-02-06T00:44:39.030Z,99.90
2019-02-06T00:47:07.671Z,99.90
2019-02-06T00:49:35.615Z,99.90
2019-02-06T00:52:03.652Z,99.90
2019-02-06T00:54:31.564Z,99.90
2019-02-06T00:56:59.590Z,99.90
2019-02-06T00:59:27.569Z,99.90
2019-02-06T01:01:55.668Z,99.90
2019-02-06T01:04:23.651Z,99.90
2019-02-06T01:06:51.722Z,99.90
2019-02-06T01:09:19.840Z,99.90
2019-02-06T01:11:47.786Z,99.90
2019-02-06T01:14:15.788Z,99.90
2019-02-06T01:16:43.813Z,99.90
2019-02-06T01:19:11.692Z,99.90
2019-02-06T01:21:39.722Z,99.90
2019-02-06T01:24:09.801Z,99.90
2019-02-06T01:26:37.718Z,99.90
2019-02-06T01:29:05.975Z,99.90
2019-02-06T01:31:34.318Z,99.90
2019-02-06T01:34:02.339Z,99.90
2019-02-06T01:36:30.521Z,99.90
2019-02-06T01:38:58.459Z,99.90
2019-02-06T01:41:27.661Z,99.90
2019-02-06T01:43:55.626Z,99.90
2019-02-06T01:46:23.577Z,99.90
2019-02-06T01:48:51.543Z,99.90
2019-02-06T01:51:19.515Z,99.90
2019-02-06T01:53:47.433Z,99.90
2019-02-06T01:56:15.494Z,99.90
2019-02-06T01:58:43.471Z,99.90
2019-02-06T02:01:11.474Z,99.90
2019-02-06T02:03:39.418Z,99.90
2019-02-06T02:06:07.400Z,99.90
2019-02-06T02:08:38.427Z,99.90
2019-02-06T02:11:06.373Z,99.90
2019-02-06T02:13:34.361Z,99.90
2019-02-06T02:16:02.477Z,99.90
2019-02-06T02:18:30.476Z,99.90
2019-02-06T02:20:58.437Z,99.90
2019-02-06T02:23:26.513Z,99.90
2019-02-06T02:25:54.950Z,99.90
2019-02-06T02:28:22.835Z,99.90
2019-02-06T02:30:55.470Z,99.90
2019-02-06T02:33:23.602Z,99.90
2019-02-06T02:35:51.679Z,99.90
2019-02-06T02:38:19.679Z,99.90
2019-02-06T02:40:47.736Z,99.90
2019-02-06T02:43:15.703Z,99.90
2019-02-06T02:45:43.666Z,99.90
2019-02-06T02:48:11.628Z,99.90
2019-02-06T02:50:39.616Z,99.90
2019-02-06T02:53:07.684Z,99.90
2019-02-06T02:55:35.606Z,99.90
2019-02-06T02:58:04.598Z,99.90
2019-02-06T03:00:51.527Z,99.90
2019-02-06T03:03:44.534Z,99.90
2019-02-06T03:06:12.977Z,99.90
2019-02-06T03:08:41.041Z,99.90
2019-02-06T03:11:28.266Z,99.90
2019-02-06T03:13:56.276Z,99.90
2019-02-06T03:16:24.330Z,99.90
2019-02-06T03:18:52.345Z,99.90
2019-02-06T03:21:20.387Z,99.90
2019-02-06T03:23:48.404Z,99.90
2019-02-06T03:26:16.374Z,99.90
2019-02-06T03:28:44.388Z,99.90
2019-02-06T03:31:12.324Z,99.90
2019-02-06T03:33:40.403Z,99.90
2019-02-06T03:36:08.503Z,99.90
2019-02-06T03:38:36.429Z,99.90
2019-02-06T03:41:04.603Z,99.90
2019-02-06T03:43:32.577Z,99.90
2019-02-06T03:46:00.470Z,99.90
2019-02-06T03:48:28.371Z,99.90
2019-02-06T03:50:56.493Z,99.90
2019-02-06T03:53:24.635Z,99.90
2019-02-06T03:55:52.531Z,99.90
2019-02-06T03:58:20.614Z,99.90
2019-02-06T04:00:48.535Z,99.90
2019-02-06T04:03:16.453Z,99.90
2019-02-06T04:05:44.499Z,99.90
2019-02-06T04:08:12.529Z,99.90
2019-02-06T04:10:40.709Z,99.90
2019-02-06T04:13:08.659Z,99.90
2019-02-06T04:15:36.732Z,99.90
2019-02-06T04:18:04.815Z,99.90
2019-02-06T04:20:32.751Z,99.90
2019-02-06T04:23:00.706Z,99.90
2019-02-06T04:25:28.773Z,99.90
2019-02-06T04:27:56.742Z,99.90
2019-02-06T04:30:24.648Z,99.90
2019-02-06T04:32:52.567Z,99.90
2019-02-06T04:35:20.630Z,99.90
2019-02-06T04:37:48.636Z,99.90
2019-02-06T04:40:17.323Z,99.90
2019-02-06T04:42:45.545Z,99.90
2019-02-06T04:45:14.312Z,99.90
2019-02-06T04:47:42.278Z,99.90
2019-02-06T04:50:10.801Z,99.90
2019-02-06T04:52:38.826Z,99.90
2019-02-06T04:55:06.988Z,99.90
2019-02-06T04:57:35.024Z,99.90
2019-02-06T05:00:03.747Z,99.90
2019-02-06T05:02:31.763Z,99.90
2019-02-06T05:04:59.672Z,99.90
2019-02-06T05:07:27.638Z,99.90
2019-02-06T05:09:55.686Z,99.90
2019-02-06T05:12:23.576Z,99.90
2019-02-06T05:14:51.561Z,99.90
2019-02-06T05:17:19.854Z,99.90
2019-02-06T05:19:47.720Z,99.90
2019-02-06T05:22:15.632Z,99.90
2019-02-06T05:24:43.563Z,99.90
2019-02-06T05:27:11.439Z,99.90
2019-02-06T05:29:39.478Z,99.90
2019-02-06T05:32:07.579Z,99.90
2019-02-06T05:34:35.922Z,99.90
2019-02-06T05:37:03.853Z,99.90
2019-02-06T05:39:31.951Z,99.90
2019-02-06T05:41:59.877Z,99.90
2019-02-06T05:44:27.842Z,99.90
2019-02-06T05:46:55.771Z,99.90
2019-02-06T05:49:23.689Z,99.90
2019-02-06T05:51:51.897Z,99.90
2019-02-06T05:54:19.957Z,99.90
2019-02-06T05:56:49.819Z,99.90
2019-02-06T05:59:17.862Z,99.90
2019-02-06T06:01:45.775Z,99.90
2019-02-06T06:04:13.662Z,99.90
2019-02-06T06:06:41.719Z,99.90
2019-02-06T06:09:09.728Z,99.90
2019-02-06T06:11:37.932Z,99.90
2019-02-06T06:14:05.977Z,99.90
2019-02-06T06:16:34.147Z,99.90
2019-02-06T06:19:02.165Z,99.90
2019-02-06T06:21:30.068Z,99.90
2019-02-06T06:23:58.062Z,99.90
2019-02-06T06:26:26.155Z,99.90
2019-02-06T06:28:54.491Z,99.90
2019-02-06T06:31:22.691Z,99.90
2019-02-06T06:33:50.722Z,99.90
2019-02-06T06:36:18.686Z,99.90
2019-02-06T06:38:46.635Z,99.90
2019-02-06T06:41:14.558Z,99.90
2019-02-06T06:43:42.458Z,99.90
2019-02-06T06:46:10.911Z,99.90
2019-02-06T06:48:38.809Z,99.90
2019-02-06T06:51:06.827Z,99.90
2019-02-06T06:53:34.723Z,99.90
2019-02-06T06:56:02.812Z,99.90
2019-02-06T06:58:30.772Z,99.90
2019-02-06T07:00:58.789Z,99.90
2019-02-06T07:03:27.401Z,99.90
2019-02-06T07:05:55.479Z,99.90
2019-02-06T07:08:23.464Z,99.90
2019-02-06T07:10:51.334Z,99.90
2019-02-06T07:13:19.302Z,99.90
2019-02-06T07:15:47.405Z,99.90
2019-02-06T07:18:15.436Z,99.90
2019-02-06T07:20:43.800Z,99.90
2019-02-06T07:23:11.739Z,99.90
2019-02-06T07:25:39.668Z,99.90
2019-02-06T07:28:07.636Z,99.90
2019-02-06T07:30:36.827Z,99.90
2019-02-06T07:33:05.263Z,99.90
2019-02-06T07:35:33.218Z,99.90
2019-02-06T07:38:01.353Z,99.90
2019-02-06T07:40:29.442Z,99.90
2019-02-06T07:42:57.564Z,99.90
2019-02-06T07:45:25.699Z,99.90
2019-02-06T07:47:53.660Z,99.90
2019-02-06T07:50:25.812Z,99.90
2019-02-06T07:52:54.191Z,99.90
2019-02-06T07:55:22.200Z,99.90
2019-02-06T07:57:50.136Z,99.90
2019-02-06T08:00:37.272Z,99.90
2019-02-06T08:03:05.353Z,99.90
2019-02-06T08:05:33.397Z,99.90
2019-02-06T08:08:01.390Z,99.90
2019-02-06T08:10:32.737Z,99.90
2019-02-06T08:13:00.744Z,99.90
2019-02-06T08:15:28.768Z,99.90
2019-02-06T08:17:56.832Z,99.90
2019-02-06T08:23:46.862Z,99.90
2019-02-06T08:26:14.900Z,99.90
2019-02-06T08:28:42.951Z,99.90
2019-02-06T08:31:13.775Z,99.90
2019-02-06T08:33:41.769Z,99.90
2019-02-06T08:36:09.746Z,99.90
2019-02-06T08:38:47.449Z,99.90
2019-02-06T08:41:07.485Z,99.90
2019-02-06T08:43:35.860Z,99.90
2019-02-06T08:46:03.906Z,99.90
2019-02-06T08:48:31.867Z,99.90
2019-02-06T08:50:59.854Z,99.90
2019-02-06T08:53:27.848Z,99.90
2019-02-06T08:55:55.990Z,99.90
2019-02-06T08:58:23.997Z,99.90
2019-02-06T09:00:52.414Z,99.90
2019-02-06T09:03:20.459Z,99.90
2019-02-06T09:05:48.444Z,99.90
2019-02-06T09:08:16.443Z,99.90
2019-02-06T09:10:44.464Z,99.90
2019-02-06T09:13:12.530Z,99.90
2019-02-06T09:15:40.571Z,99.90
2019-02-06T09:18:08.883Z,99.90
2019-02-06T09:20:36.774Z,99.90
2019-02-06T09:23:05.117Z,99.90
2019-02-06T09:25:33.058Z,99.90
2019-02-06T09:28:01.070Z,99.90
2019-02-06T09:30:30.216Z,99.90
2019-02-06T09:32:58.234Z,99.90
2019-02-06T09:35:26.576Z,99.90
2019-02-06T09:37:54.559Z,99.90
2019-02-06T09:40:23.608Z,99.90
2019-02-06T09:42:51.647Z,99.90
2019-02-06T09:45:19.650Z,99.90
2019-02-06T09:47:47.610Z,99.90
2019-02-06T09:50:17.282Z,99.90
2019-02-06T09:52:45.487Z,99.90
2019-02-06T09:55:13.435Z,99.90
2019-02-06T09:57:41.807Z,99.90
2019-02-06T10:00:12.044Z,99.90
2019-02-06T10:02:40.058Z,99.90
2019-02-06T10:05:08.382Z,99.90
2019-02-06T10:07:36.688Z,99.90
2019-02-06T10:10:05.380Z,99.90
2019-02-06T10:12:33.271Z,99.90
2019-02-06T10:15:01.276Z,99.90
2019-02-06T10:17:29.244Z,99.90
2019-02-06T10:19:57.176Z,99.90
2019-02-06T10:22:25.078Z,99.90
2019-02-06T10:24:53.343Z,99.90
2019-02-06T10:27:23.998Z,99.90
2019-02-06T10:29:50.941Z,99.90
2019-02-06T10:32:18.887Z,99.90
2019-02-06T10:34:46.758Z,99.90
2019-02-06T10:37:14.821Z,99.90
2019-02-06T10:39:42.859Z,99.90
2019-02-06T10:42:11.315Z,99.90
2019-02-06T10:44:39.374Z,99.90
2019-02-06T10:47:07.452Z,99.90
2019-02-06T10:49:35.463Z,99.90
2019-02-06T10:52:03.459Z,99.90
2019-02-06T10:54:31.552Z,99.90
2019-02-06T10:56:59.612Z,99.90
2019-02-06T10:59:29.228Z,93.10
2019-02-06T11:01:57.271Z,86.20
2019-02-06T11:04:25.343Z,77.20
2019-02-06T11:06:53.327Z,77.90
2019-02-06T11:09:21.240Z,73.70
2019-02-06T11:11:49.368Z,71.20
2019-02-06T11:14:17.402Z,69.90
2019-02-06T11:16:45.587Z,68.80
2019-02-06T11:19:14.911Z,70.20
2019-02-06T11:21:42.981Z,73.10
2019-02-06T11:24:10.910Z,73.90
2019-02-06T11:26:38.962Z,76.40
2019-02-06T11:29:06.918Z,74.90
2019-02-06T11:31:34.952Z,75.50
2019-02-06T11:34:02.944Z,76.80
2019-02-06T11:36:30.993Z,79.00
2019-02-06T11:38:58.959Z,83.80
2019-02-06T11:41:26.969Z,86.80
2019-02-06T11:43:55.022Z,86.90
2019-02-06T11:46:23.016Z,87.30
2019-02-06T11:48:51.005Z,89.40
2019-02-06T11:51:18.972Z,91.80
2019-02-06T11:53:46.958Z,92.00
2019-02-06T11:56:14.882Z,92.90
2019-02-06T11:58:42.853Z,93.10
2019-02-06T12:01:18.579Z,93.50
2019-02-06T12:03:46.670Z,94.50
2019-02-06T12:06:14.761Z,94.80
2019-02-06T12:08:42.903Z,96.00
2019-02-06T12:11:13.715Z,96.60
2019-02-06T12:13:41.676Z,97.50
2019-02-06T12:16:09.635Z,99.00
2019-02-06T12:18:37.557Z,99.90
2019-02-06T12:21:05.475Z,99.90
2019-02-06T12:23:33.437Z,99.90
2019-02-06T12:26:01.435Z,99.90
2019-02-06T12:28:29.376Z,99.90
2019-02-06T12:30:57.435Z,99.90
2019-02-06T12:33:25.399Z,99.90
2019-02-06T12:35:53.300Z,99.90
2019-02-06T12:38:21.312Z,99.90
2019-02-06T12:40:49.727Z,99.90
2019-02-06T12:43:17.796Z,99.90
2019-02-06T12:45:45.762Z,99.90
2019-02-06T12:48:13.711Z,99.90
2019-02-06T12:50:41.683Z,99.90
2019-02-06T12:53:09.725Z,99.90
2019-02-06T12:55:38.166Z,99.90
2019-02-06T12:58:06.608Z,99.90
2019-02-06T13:00:34.859Z,99.90
2019-02-06T13:03:02.865Z,99.90
2019-02-06T13:05:31.171Z,99.90
2019-02-06T13:07:59.288Z,99.90
2019-02-06T13:10:33.824Z,99.90
2019-02-06T13:12:57.037Z,99.90
2019-02-06T13:15:25.085Z,99.90
2019-02-06T13:17:53.362Z,99.90
2019-02-06T13:20:22.611Z,99.90
2019-02-06T13:22:50.614Z,99.90
2019-02-06T13:25:18.498Z,99.90
2019-02-06T13:27:46.580Z,99.90
2019-02-06T13:30:19.053Z,99.90
2019-02-06T13:32:47.565Z,99.90
2019-02-06T13:35:15.748Z,99.90
2019-02-06T13:37:43.644Z,99.90
2019-02-06T13:40:13.361Z,99.90
2019-02-06T13:42:41.430Z,99.90
2019-02-06T13:45:10.875Z,99.90
2019-02-06T13:47:38.894Z,99.90
2019-02-06T13:50:07.945Z,99.90
2019-02-06T13:52:55.314Z,99.90
2019-02-06T13:55:23.283Z,99.90
2019-02-06T13:57:51.276Z,99.90
2019-02-06T14:00:20.493Z,99.90
2019-02-06T14:02:48.773Z,99.90
2019-02-06T14:05:18.271Z,99.90
2019-02-06T14:07:46.438Z,99.90
2019-02-06T14:10:15.176Z,99.90
2019-02-06T14:12:43.129Z,99.90
2019-02-06T14:15:12.436Z,99.90
2019-02-06T14:17:40.595Z,99.90
2019-02-06T14:20:10.667Z,99.90
2019-02-06T14:22:38.567Z,99.90
2019-02-06T14:25:27.034Z,99.90
2019-02-06T14:27:57.616Z,99.90
2019-02-06T14:30:47.792Z,99.90
2019-02-06T14:33:29.286Z,99.90
2019-02-06T14:36:19.824Z,99.90
2019-02-06T14:39:05.773Z,99.90
2019-02-06T14:41:39.700Z,99.90
2019-02-06T14:44:14.055Z,99.90
2019-02-06T14:46:55.310Z,99.90
2019-02-06T14:49:45.543Z,99.90
2019-02-06T14:52:31.442Z,99.90
2019-02-06T14:55:11.998Z,99.90
2019-02-06T14:57:58.123Z,99.90
2019-02-06T15:00:36.556Z,99.90
2019-02-06T15:03:23.738Z,99.90
2019-02-06T15:06:09.863Z,99.90
2019-02-06T15:09:00.497Z,99.90
2019-02-06T15:11:44.264Z,99.90
2019-02-06T15:14:26.084Z,99.90
2019-02-06T15:17:16.312Z,99.90
2019-02-06T15:20:12.658Z,99.90
2019-02-06T15:22:58.482Z,99.90
2019-02-06T15:25:45.698Z,99.90
2019-02-06T15:28:26.891Z,99.90
2019-02-06T15:31:12.971Z,99.90
2019-02-06T15:33:59.176Z,99.90
2019-02-06T15:36:45.556Z,99.90
2019-02-06T15:39:37.517Z,99.90
2019-02-06T15:42:11.652Z,99.90
2019-02-06T15:44:46.527Z,99.90
2019-02-06T15:47:36.824Z,99.90
2019-02-06T15:50:26.450Z,99.90
2019-02-06T15:52:50.852Z,99.90
2019-02-06T15:55:39.179Z,99.90
2019-02-06T15:58:25.283Z,99.90
2019-02-06T16:01:01.488Z,99.90
2019-02-06T16:04:12.718Z,99.90
2019-02-06T16:06:59.993Z,99.90
2019-02-06T16:09:47.276Z,99.90
2019-02-06T16:12:25.432Z,99.90
2019-02-06T16:15:24.789Z,99.90
2019-02-06T16:17:55.908Z,99.90
2019-02-06T16:20:33.610Z,99.90
2019-02-06T16:23:08.337Z,99.90
2019-02-06T16:26:01.724Z,99.90
2019-02-06T16:28:48.028Z,99.90
2019-02-06T16:31:24.990Z,99.90
2019-02-06T16:34:12.188Z,99.90
2019-02-06T16:37:08.531Z,99.90
2019-02-06T16:40:07.723Z,99.90
2019-02-06T16:43:09.965Z,99.90
2019-02-06T16:46:09.068Z,99.90
2019-02-06T16:48:49.801Z,99.90
2019-02-06T16:51:23.708Z,99.90
2019-02-06T16:54:05.873Z,99.90
2019-02-06T16:56:53.117Z,99.90
2019-02-06T16:59:39.058Z,99.90
2019-02-06T17:02:21.932Z,99.90
2019-02-06T17:05:09.398Z,99.90
2019-02-06T17:07:58.246Z,99.90
2019-02-06T17:10:36.700Z,99.90
2019-02-06T17:13:26.754Z,99.90
2019-02-06T17:16:25.745Z,99.90
2019-02-06T17:19:19.259Z,99.90
2019-02-06T17:22:05.510Z,99.90
2019-02-06T17:24:53.176Z,99.90
2019-02-06T17:27:28.447Z,99.90
2019-02-06T17:30:00.920Z,99.90
2019-02-06T17:32:51.198Z,99.90
2019-02-06T17:35:47.583Z,99.90
2019-02-06T17:38:26.905Z,99.90
2019-02-06T17:41:23.059Z,99.90
2019-02-06T17:44:04.100Z,99.90
2019-02-06T17:46:51.362Z,99.90
2019-02-06T17:49:43.851Z,99.90
2019-02-06T17:52:31.012Z,99.90
2019-02-06T17:55:17.219Z,99.90
2019-02-06T17:57:45.864Z,99.90
2019-02-06T18:00:15.868Z,99.90
2019-02-06T18:02:44.034Z,99.90
2019-02-06T18:05:11.988Z,99.90
2019-02-06T18:07:39.891Z,99.90
2019-02-06T18:10:10.007Z,99.90
2019-02-06T18:12:38.548Z,99.90
2019-02-06T18:15:06.607Z,99.90
2019-02-06T18:17:34.611Z,99.90
2019-02-06T18:20:02.780Z,99.90
2019-02-06T18:22:30.745Z,99.90
2019-02-06T18:24:58.720Z,99.90
2019-02-06T18:27:26.692Z,99.90
2019-02-06T18:29:55.236Z,99.90
2019-02-06T18:32:23.394Z,99.90
2019-02-06T18:34:51.389Z,99.90
2019-02-06T18:37:19.540Z,99.90
2019-02-06T18:39:47.611Z,99.90
2019-02-06T18:42:15.708Z,99.90
2019-02-06T18:44:43.845Z,99.90
2019-02-06T18:47:12.023Z,99.90
2019-02-06T18:49:40.030Z,99.90
2019-02-06T18:52:08.320Z,99.90
2019-02-06T18:54:36.347Z,99.90
2019-02-06T18:57:04.633Z,99.90
2019-02-06T18:59:32.630Z,99.90
2019-02-06T19:02:00.656Z,99.90
2019-02-06T19:04:28.814Z,99.90
2019-02-06T19:06:56.957Z,99.90
2019-02-06T19:09:25.209Z,99.90
2019-02-06T19:11:53.271Z,99.90
2019-02-06T19:14:21.707Z,99.90
2019-02-06T19:16:50.676Z,99.90
2019-02-06T19:19:25.529Z,99.90
2019-02-06T19:21:48.347Z,99.90
2019-02-06T19:24:17.839Z,99.90
2019-02-06T19:26:46.014Z,99.90
2019-02-06T19:29:14.101Z,99.90
2019-02-06T19:31:42.462Z,99.90
2019-02-06T19:34:10.538Z,99.90
2019-02-06T19:36:38.631Z,99.90
2019-02-06T19:39:09.619Z,99.90
2019-02-06T19:41:37.642Z,99.90
2019-02-06T19:44:06.029Z,99.90
2019-02-06T19:46:34.147Z,99.90
2019-02-06T19:49:02.430Z,99.90
2019-02-06T19:51:30.584Z,99.90
2019-02-06T19:54:04.366Z,99.90
2019-02-06T19:56:36.642Z,99.90
2019-02-06T19:59:04.884Z,99.90
2019-02-06T20:01:32.968Z,99.90
2019-02-06T20:04:01.752Z,99.90
2019-02-06T20:06:31.182Z,99.90
2019-02-06T20:09:00.487Z,99.90
2019-02-06T20:11:28.974Z,99.90
2019-02-06T20:13:56.939Z,99.90
2019-02-06T20:16:25.046Z,99.90
2019-02-06T20:18:53.029Z,99.90
2019-02-06T20:21:21.055Z,99.90
2019-02-06T20:23:49.104Z,99.90
2019-02-06T20:26:17.480Z,99.90
2019-02-06T20:28:45.635Z,99.90
2019-02-06T20:31:13.964Z,99.90
2019-02-06T20:33:42.042Z,99.90
2019-02-06T20:36:10.283Z,99.90
2019-02-06T20:38:38.590Z,99.90
2019-02-06T20:41:06.645Z,99.90
2019-02-06T20:43:34.698Z,99.90
2019-02-06T20:46:04.175Z,99.90
2019-02-06T20:48:32.236Z,99.90
2019-02-06T20:51:00.267Z,99.90
2019-02-06T20:53:28.274Z,99.90
2019-02-06T20:55:56.669Z,99.90
2019-02-06T20:58:24.788Z,99.90
2019-02-06T21:00:55.158Z,99.90
2019-02-06T21:03:23.676Z,99.90
2019-02-06T21:05:53.191Z,99.90
2019-02-06T21:08:21.462Z,99.90
2019-02-06T21:10:49.576Z,99.90
2019-02-06T21:13:19.072Z,99.90
2019-02-06T21:15:47.528Z,99.90
2019-02-06T21:18:15.752Z,99.90
2019-02-06T21:20:47.127Z,99.90
2019-02-06T21:23:16.530Z,99.90
2019-02-06T21:25:50.310Z,99.90
2019-02-06T21:28:16.581Z,99.90
2019-02-06T21:30:46.838Z,99.90
2019-02-06T21:33:14.780Z,99.90
2019-02-06T21:35:45.754Z,99.90
2019-02-06T21:38:13.822Z,99.90
2019-02-06T21:40:43.705Z,99.90
2019-02-06T21:43:13.382Z,99.90
2019-02-06T21:45:41.556Z,99.90
2019-02-06T21:48:09.588Z,99.90
2019-02-06T21:50:38.023Z,99.90
2019-02-06T21:53:06.217Z,99.90
2019-02-06T21:55:36.089Z,99.90
2019-02-06T21:58:04.861Z,99.90
2019-02-06T22:00:34.376Z,99.90
2019-02-06T22:03:02.519Z,99.90
2019-02-06T22:05:31.109Z,99.90
2019-02-06T22:07:59.242Z,99.90
2019-02-06T22:10:27.188Z,99.90
2019-02-06T22:12:55.541Z,99.90
2019-02-06T22:15:24.480Z,99.90
2019-02-06T22:17:52.536Z,99.90
2019-02-06T22:20:20.413Z,99.90
2019-02-06T22:22:48.496Z,99.90
2019-02-06T22:25:16.653Z,99.90
2019-02-06T22:27:44.585Z,99.90
2019-02-06T22:30:14.371Z,99.90
2019-02-06T22:32:42.413Z,99.90
2019-02-06T22:35:12.083Z,99.90
2019-02-06T22:37:40.494Z,99.90
2019-02-06T22:40:09.834Z,99.90
2019-02-06T22:42:37.873Z,99.90
2019-02-06T22:45:07.046Z,99.90
2019-02-06T22:47:41.267Z,99.90
2019-02-06T22:50:10.147Z,99.90
2019-02-06T22:52:38.467Z,99.90
2019-02-06T22:55:06.945Z,99.90
2019-02-06T22:57:35.017Z,99.90
2019-02-06T23:00:03.595Z,99.90
2019-02-06T23:02:31.673Z,99.90
2019-02-06T23:04:59.687Z,99.90
2019-02-06T23:07:27.727Z,99.90
2019-02-06T23:09:55.790Z,99.90
2019-02-06T23:12:23.787Z,99.90
2019-02-06T23:14:51.769Z,99.90
2019-02-06T23:17:19.747Z,99.90
2019-02-06T23:19:47.701Z,99.90
2019-02-06T23:22:15.647Z,99.90
2019-02-06T23:24:43.994Z,99.90
2019-02-06T23:27:11.884Z,99.90
2019-02-06T23:29:39.874Z,99.90
2019-02-06T23:32:07.841Z,99.90
2019-02-06T23:34:35.787Z,99.90
2019-02-06T23:37:03.858Z,99.90
2019-02-06T23:39:31.805Z,99.90
2019-02-06T23:41:59.829Z,99.90
2019-02-06T23:44:29.145Z,99.90
2019-02-06T23:46:57.467Z,99.90
2019-02-06T23:49:25.744Z,99.90
2019-02-06T23:51:53.721Z,99.90
2019-02-06T23:54:21.802Z,99.90
2019-02-06T23:56:50.216Z,99.90
2019-02-06T23:59:18.131Z,99.90
